createdAt,value
2023-05-19T00:00:17.237Z,100992.59
2023-05-19T00:03:21.924Z,100997.75
2023-05-19T00:06:27.766Z,100999.38
2023-05-19T00:09:31.496Z,100993.59
2023-05-19T00:12:34.988Z,100983.47
2023-05-19T00:15:37.952Z,100987.81
2023-05-19T00:18:40.792Z,100984.69
2023-05-19T00:21:43.410Z,100980.38
2023-05-19T00:24:45.969Z,100990.50
2023-05-19T00:27:48.525Z,100986.16
2023-05-19T00:30:51.918Z,100991.94
2023-05-19T00:33:54.592Z,100985.56
2023-05-19T00:36:57.174Z,100985.34
2023-05-19T00:39:59.897Z,100979.34
2023-05-19T00:43:03.027Z,100978.53
2023-05-19T00:46:07.431Z,100972.75
2023-05-19T00:49:10.041Z,100971.69
2023-05-19T00:52:12.644Z,100974.19
2023-05-19T00:55:15.487Z,100966.97
2023-05-19T00:58:19.297Z,100971.72
2023-05-19T01:01:22.477Z,100970.06
2023-05-19T01:04:26.674Z,100983.28
2023-05-19T01:07:30.199Z,100984.28
2023-05-19T01:10:33.228Z,100975.22
2023-05-19T01:13:36.957Z,100970.28
2023-05-19T01:17:05.788Z,100961.00
2023-05-19T01:20:13.970Z,100964.50
2023-05-19T01:23:40.152Z,100960.13
2023-05-19T01:27:06.936Z,100963.22
2023-05-19T01:30:26.528Z,100960.56
2023-05-19T01:33:31.341Z,100962.63
2023-05-19T01:36:35.436Z,100965.03
2023-05-19T01:39:40.238Z,100970.59
2023-05-19T01:42:43.188Z,100968.09
2023-05-19T01:45:48.475Z,100961.31
2023-05-19T01:48:52.566Z,100967.28
2023-05-19T01:51:56.442Z,100967.69
2023-05-19T01:54:59.335Z,100963.81
2023-05-19T01:58:23.096Z,100961.31
2023-05-19T02:02:01.102Z,100962.94
2023-05-19T02:05:12.955Z,100964.81
2023-05-19T02:08:33.876Z,100967.69
2023-05-19T02:11:54.996Z,100969.53
2023-05-19T02:15:11.816Z,100962.75
2023-05-19T02:18:17.931Z,100963.38
2023-05-19T02:21:20.615Z,100957.38
2023-05-19T02:24:23.481Z,100960.88
2023-05-19T02:27:26.431Z,100968.94
2023-05-19T02:30:29.090Z,100969.78
2023-05-19T02:33:31.653Z,100970.38
2023-05-19T02:36:36.699Z,100966.91
2023-05-19T02:39:39.421Z,100971.84
2023-05-19T02:42:42.024Z,100965.88
2023-05-19T02:45:45.479Z,100966.72
2023-05-19T02:48:48.105Z,100971.47
2023-05-19T02:51:50.659Z,100969.00
2023-05-19T02:54:53.197Z,100971.50
2023-05-19T02:57:55.946Z,100966.97
2023-05-19T03:00:58.535Z,100971.91
2023-05-19T03:04:01.811Z,100970.28
2023-05-19T03:07:06.322Z,100967.19
2023-05-19T03:10:09.179Z,100972.34
2023-05-19T03:13:11.837Z,100970.28
2023-05-19T03:16:14.575Z,100969.44
2023-05-19T03:19:18.359Z,100968.25
2023-05-19T03:22:21.473Z,100969.25
2023-05-19T03:25:24.394Z,100978.78
2023-05-19T03:28:29.659Z,100971.56
2023-05-19T03:31:32.429Z,100977.50
2023-05-19T03:34:35.686Z,100968.63
2023-05-19T03:37:38.664Z,100974.63
2023-05-19T03:40:41.884Z,100975.44
2023-05-19T03:43:46.851Z,100970.53
2023-05-19T03:46:50.227Z,100973.84
2023-05-19T03:49:52.713Z,100972.00
2023-05-19T03:53:18.574Z,100982.56
2023-05-19T03:56:23.770Z,100979.47
2023-05-19T03:59:26.398Z,100975.31
2023-05-19T04:02:29.028Z,100979.44
2023-05-19T04:05:31.881Z,100984.81
2023-05-19T04:08:35.777Z,100982.97
2023-05-19T04:11:39.762Z,100987.31
2023-05-19T04:14:42.345Z,100986.69
2023-05-19T04:17:46.251Z,100990.00
2023-05-19T04:20:49.075Z,100975.94
2023-05-19T04:23:51.899Z,100991.03
2023-05-19T04:26:54.467Z,100987.28
2023-05-19T04:29:58.173Z,100991.44
2023-05-19T04:33:01.362Z,100994.94
2023-05-19T04:36:08.632Z,100995.56
2023-05-19T04:39:12.428Z,101001.97
2023-05-19T04:42:19.525Z,101004.66
2023-05-19T04:45:23.472Z,101003.59
2023-05-19T04:48:31.036Z,100998.66
2023-05-19T04:51:33.724Z,101016.41
2023-05-19T04:54:38.584Z,101014.78
2023-05-19T04:57:41.803Z,101013.31
2023-05-19T05:00:44.559Z,101006.66
2023-05-19T05:03:48.095Z,101012.44
2023-05-19T05:06:51.606Z,101015.91
2023-05-19T05:09:55.000Z,101013.22
2023-05-19T05:12:58.107Z,101016.94
2023-05-19T05:16:01.036Z,101015.25
2023-05-19T05:19:04.076Z,101024.00
2023-05-19T05:22:07.413Z,101025.41
2023-05-19T05:25:14.535Z,101028.47
2023-05-19T05:28:18.775Z,101029.31
2023-05-19T05:31:23.080Z,101036.34
2023-05-19T05:34:25.748Z,101036.88
2023-05-19T05:37:29.708Z,101035.00
2023-05-19T05:40:33.458Z,101026.25
2023-05-19T05:43:36.282Z,101029.75
2023-05-19T05:46:40.348Z,101031.31
2023-05-19T05:49:44.160Z,101033.69
2023-05-19T05:52:49.107Z,101033.50
2023-05-19T05:55:53.792Z,101029.41
2023-05-19T05:59:00.215Z,101034.56
2023-05-19T06:02:03.504Z,101037.31
2023-05-19T06:05:08.276Z,101034.22
2023-05-19T06:08:11.218Z,101038.78
2023-05-19T06:11:14.072Z,101046.28
2023-05-19T06:14:17.560Z,101041.84
2023-05-19T06:17:41.009Z,101043.34
2023-05-19T06:20:43.678Z,101049.38
2023-05-19T06:23:46.224Z,101048.94
2023-05-19T06:26:48.869Z,101050.78
2023-05-19T06:29:53.309Z,101053.13
2023-05-19T06:32:56.849Z,101056.50
2023-05-19T06:36:01.112Z,101060.34
2023-05-19T06:39:04.004Z,101059.66
2023-05-19T06:42:08.181Z,101059.75
2023-05-19T06:45:40.108Z,101069.63
2023-05-19T06:48:44.382Z,101073.56
2023-05-19T06:51:47.891Z,101080.75
2023-05-19T06:54:50.832Z,101071.22
2023-05-19T06:57:53.955Z,101076.59
2023-05-19T07:00:57.030Z,101079.34
2023-05-19T07:04:03.627Z,101082.22
2023-05-19T07:07:06.529Z,101076.94
2023-05-19T07:10:09.955Z,101079.00
2023-05-19T07:13:12.758Z,101073.03
2023-05-19T07:16:15.559Z,101073.81
2023-05-19T07:19:19.902Z,101073.44
2023-05-19T07:22:24.226Z,101074.66
2023-05-19T07:25:28.772Z,101073.69
2023-05-19T07:28:31.522Z,101073.03
2023-05-19T07:31:34.254Z,101080.72
2023-05-19T07:34:36.895Z,101076.22
2023-05-19T07:37:39.632Z,101071.44
2023-05-19T07:40:42.228Z,101069.25
2023-05-19T07:43:44.796Z,101063.75
2023-05-19T07:46:47.970Z,101059.47
2023-05-19T07:49:51.851Z,101066.22
2023-05-19T07:52:56.652Z,101059.97
2023-05-19T07:56:02.074Z,101060.78
2023-05-19T07:59:04.898Z,101054.34
2023-05-19T08:02:07.904Z,101052.91
2023-05-19T08:05:10.800Z,101046.75
2023-05-19T08:08:17.857Z,101044.41
2023-05-19T08:11:21.890Z,101051.69
2023-05-19T08:14:25.093Z,101041.28
2023-05-19T08:17:27.894Z,101040.28
2023-05-19T08:20:32.079Z,101040.28
2023-05-19T08:23:34.919Z,101036.97
2023-05-19T08:26:38.196Z,101024.97
2023-05-19T08:29:41.198Z,101032.81
2023-05-19T08:32:44.830Z,101032.66
2023-05-19T08:35:48.209Z,101049.56
2023-05-19T08:38:51.186Z,101037.78
2023-05-19T08:41:54.643Z,101042.97
2023-05-19T08:44:57.660Z,101042.16
2023-05-19T08:48:00.948Z,101046.81
2023-05-19T08:51:33.479Z,101047.44
2023-05-19T08:54:54.715Z,101037.34
2023-05-19T08:57:57.649Z,101039.53
2023-05-19T09:01:01.421Z,101038.59
2023-05-19T09:04:04.746Z,101031.31
2023-05-19T09:07:09.520Z,101038.94
2023-05-19T09:10:16.315Z,101035.59
2023-05-19T09:13:19.616Z,101033.03
2023-05-19T09:16:22.619Z,101035.69
2023-05-19T09:19:29.124Z,101028.09
2023-05-19T09:22:35.738Z,101035.38
2023-05-19T09:25:47.327Z,101044.13
2023-05-19T09:28:49.931Z,101033.19
2023-05-19T09:31:54.797Z,101026.88
2023-05-19T09:34:57.373Z,101023.06
2023-05-19T09:38:00.987Z,101036.75
2023-05-19T09:41:05.250Z,101027.22
2023-05-19T09:44:07.924Z,101032.22
2023-05-19T09:47:11.767Z,101029.34
2023-05-19T09:50:14.516Z,101031.88
2023-05-19T09:53:19.361Z,101021.19
2023-05-19T09:56:23.939Z,101026.31
2023-05-19T09:59:30.531Z,101021.06
2023-05-19T10:02:35.325Z,101021.28
2023-05-19T10:05:38.711Z,101019.25
2023-05-19T10:08:42.596Z,101012.88
2023-05-19T10:11:46.095Z,101012.63
2023-05-19T10:14:49.857Z,101006.13
2023-05-19T10:17:53.317Z,100992.47
2023-05-19T10:20:58.270Z,100999.59
2023-05-19T10:24:01.177Z,100997.22
2023-05-19T10:27:08.514Z,100996.38
2023-05-19T10:30:16.885Z,100993.84
2023-05-19T10:33:23.297Z,100983.66
2023-05-19T10:36:40.935Z,100982.69
2023-05-19T10:39:46.132Z,100983.22
2023-05-19T10:43:19.537Z,100985.13
2023-05-19T10:46:27.600Z,100979.06
2023-05-19T10:49:36.672Z,100975.81
2023-05-19T10:52:40.776Z,100968.06
2023-05-19T10:55:49.469Z,100974.00
2023-05-19T10:58:53.064Z,100965.75
2023-05-19T11:01:55.722Z,100957.91
2023-05-19T11:05:09.328Z,100963.56
2023-05-19T11:08:12.853Z,100958.28
2023-05-19T11:11:17.081Z,100954.59
2023-05-19T11:14:26.760Z,100952.50
2023-05-19T11:17:29.612Z,100953.03
2023-05-19T11:20:34.862Z,100952.50
2023-05-19T11:23:40.704Z,100948.09
2023-05-19T11:26:43.911Z,100949.78
2023-05-19T11:29:49.291Z,100952.28
2023-05-19T11:33:01.018Z,100950.53
2023-05-19T11:36:05.753Z,100945.69
2023-05-19T11:39:09.600Z,100939.19
2023-05-19T11:42:12.163Z,100936.59
2023-05-19T11:45:14.707Z,100943.91
2023-05-19T11:48:21.251Z,100946.19
2023-05-19T11:51:24.423Z,100935.94
2023-05-19T11:54:33.823Z,100941.22
2023-05-19T11:57:36.719Z,100935.84
2023-05-19T12:00:43.385Z,100923.53
2023-05-19T12:03:46.607Z,100918.41
2023-05-19T12:06:51.463Z,100918.91
2023-05-19T12:09:55.885Z,100927.19
2023-05-19T12:12:59.870Z,100924.63
2023-05-19T12:16:04.778Z,100922.84
2023-05-19T12:19:07.512Z,100916.13
2023-05-19T12:22:10.869Z,100921.00
2023-05-19T12:25:15.274Z,100917.56
2023-05-19T12:28:19.813Z,100907.31
2023-05-19T12:31:25.616Z,100898.50
2023-05-19T12:34:28.479Z,100903.53
2023-05-19T12:37:31.124Z,100894.13
2023-05-19T12:40:37.800Z,100904.16
2023-05-19T12:43:41.179Z,100897.44
2023-05-19T12:46:44.439Z,100882.59
2023-05-19T12:49:57.567Z,100879.38
2023-05-19T12:53:00.346Z,100887.44
2023-05-19T12:56:13.176Z,100882.59
2023-05-19T12:59:30.922Z,100874.06
2023-05-19T13:03:00.105Z,100875.91
2023-05-19T13:06:03.024Z,100859.59
2023-05-19T13:09:07.355Z,100861.72
2023-05-19T13:12:09.877Z,100864.75
2023-05-19T13:15:12.949Z,100856.69
2023-05-19T13:18:15.530Z,100850.63
2023-05-19T13:21:18.013Z,100854.94
2023-05-19T13:24:20.558Z,100856.56
2023-05-19T13:27:24.862Z,100846.66
2023-05-19T13:30:28.367Z,100835.75
2023-05-19T13:33:30.964Z,100834.97
2023-05-19T13:36:35.042Z,100827.50
2023-05-19T13:39:38.055Z,100827.47
2023-05-19T13:42:41.624Z,100820.00
2023-05-19T13:45:44.671Z,100816.66
2023-05-19T13:48:47.331Z,100816.28
2023-05-19T13:51:50.032Z,100822.44
2023-05-19T13:54:54.643Z,100811.72
2023-05-19T13:57:58.153Z,100813.66
2023-05-19T14:01:01.006Z,100822.50
2023-05-19T14:04:05.253Z,100808.00
2023-05-19T14:07:08.392Z,100805.63
2023-05-19T14:10:11.414Z,100798.66
2023-05-19T14:13:31.637Z,100802.91
2023-05-19T14:16:38.160Z,100802.31
2023-05-19T14:19:41.194Z,100804.34
2023-05-19T14:22:43.713Z,100808.03
2023-05-19T14:25:46.248Z,100798.84
2023-05-19T14:28:48.984Z,100804.13
2023-05-19T14:31:51.750Z,100800.72
2023-05-19T14:34:54.367Z,100804.88
2023-05-19T14:37:56.880Z,100802.31
2023-05-19T14:40:59.446Z,100795.25
2023-05-19T14:44:01.979Z,100796.00
2023-05-19T14:47:04.976Z,100808.13
2023-05-19T14:50:07.991Z,100796.94
2023-05-19T14:53:11.014Z,100793.09
2023-05-19T14:56:13.565Z,100785.00
2023-05-19T14:59:16.107Z,100785.28
2023-05-19T15:02:18.644Z,100778.59
2023-05-19T15:05:22.909Z,100777.16
2023-05-19T15:08:25.883Z,100780.56
2023-05-19T15:11:28.412Z,100784.31
2023-05-19T15:14:31.419Z,100782.25
2023-05-19T15:17:34.193Z,100776.78
2023-05-19T15:20:36.921Z,100767.88
2023-05-19T15:23:39.602Z,100763.19
2023-05-19T15:26:42.161Z,100764.59
2023-05-19T15:29:44.853Z,100767.13
2023-05-19T15:32:47.430Z,100771.25
2023-05-19T15:35:52.091Z,100763.38
2023-05-19T15:38:54.684Z,100759.75
2023-05-19T15:41:57.226Z,100759.75
2023-05-19T15:44:59.833Z,100752.28
2023-05-19T15:48:03.396Z,100758.41
2023-05-19T15:51:06.214Z,100759.69
2023-05-19T15:54:08.712Z,100760.94
2023-05-19T15:57:11.339Z,100748.84
2023-05-19T16:00:14.492Z,100752.00
2023-05-19T16:03:17.092Z,100753.97
2023-05-19T16:06:20.623Z,100760.94
2023-05-19T16:09:23.188Z,100758.50
2023-05-19T16:12:27.530Z,100757.81
2023-05-19T16:15:30.179Z,100758.28
2023-05-19T16:18:32.752Z,100763.16
2023-05-19T16:21:35.256Z,100754.44
2023-05-19T16:24:37.726Z,100762.09
2023-05-19T16:27:40.236Z,100757.59
2023-05-19T16:30:43.210Z,100759.44
2023-05-19T16:33:46.273Z,100763.47
2023-05-19T16:36:48.919Z,100760.72
2023-05-19T16:39:51.408Z,100758.94
2023-05-19T16:42:54.125Z,100759.91
2023-05-19T16:45:57.176Z,100759.16
2023-05-19T16:48:59.811Z,100762.66
2023-05-19T16:52:02.309Z,100762.72
2023-05-19T16:55:06.018Z,100758.84
2023-05-19T16:58:10.629Z,100760.44
2023-05-19T17:01:13.229Z,100765.88
2023-05-19T17:04:15.924Z,100762.06
2023-05-19T17:07:18.612Z,100760.38
2023-05-19T17:10:21.185Z,100758.78
2023-05-19T17:13:23.784Z,100763.88
2023-05-19T17:16:26.468Z,100763.72
2023-05-19T17:19:29.181Z,100762.97
2023-05-19T17:22:31.921Z,100764.88
2023-05-19T17:25:34.783Z,100772.59
2023-05-19T17:28:37.449Z,100764.19
2023-05-19T17:31:40.107Z,100766.97
2023-05-19T17:34:42.649Z,100776.28
2023-05-19T17:37:45.137Z,100773.88
2023-05-19T17:40:47.882Z,100774.69
2023-05-19T17:43:50.756Z,100778.75
2023-05-19T17:46:53.428Z,100776.28
2023-05-19T17:49:56.021Z,100775.69
2023-05-19T17:52:58.925Z,100777.75
2023-05-19T17:56:03.581Z,100782.03
2023-05-19T17:59:06.858Z,100786.25
2023-05-19T18:02:10.037Z,100779.09
2023-05-19T18:05:13.336Z,100780.56
2023-05-19T18:08:16.771Z,100781.81
2023-05-19T18:11:19.682Z,100787.16
2023-05-19T18:14:22.163Z,100784.34
2023-05-19T18:17:24.764Z,100782.25
2023-05-19T18:20:27.356Z,100777.72
2023-05-19T18:23:30.177Z,100777.63
2023-05-19T18:26:33.653Z,100786.69
2023-05-19T18:29:36.202Z,100795.22
2023-05-19T18:32:38.934Z,100804.25
2023-05-19T18:35:41.497Z,100803.97
2023-05-19T18:38:44.086Z,100806.06
2023-05-19T18:41:47.616Z,100804.69
2023-05-19T18:44:50.817Z,100813.47
2023-05-19T18:47:54.642Z,100813.75
2023-05-19T18:50:57.398Z,100815.47
2023-05-19T18:54:00.191Z,100819.88
2023-05-19T18:57:03.626Z,100819.53
2023-05-19T19:00:06.866Z,100824.28
2023-05-19T19:03:11.937Z,100828.44
2023-05-19T19:06:17.115Z,100821.44
2023-05-19T19:09:19.786Z,100814.53
2023-05-19T19:12:22.341Z,100823.38
2023-05-19T19:15:25.477Z,100822.69
2023-05-19T19:18:28.128Z,100821.66
2023-05-19T19:21:31.886Z,100817.56
2023-05-19T19:24:34.433Z,100821.44
2023-05-19T19:27:37.329Z,100831.38
2023-05-19T19:30:39.933Z,100831.84
2023-05-19T19:33:43.582Z,100835.03
2023-05-19T19:36:47.911Z,100835.50
2023-05-19T19:39:50.607Z,100839.63
2023-05-19T19:42:53.153Z,100837.19
2023-05-19T19:46:00.803Z,100845.41
2023-05-19T19:49:03.510Z,100847.03
2023-05-19T19:52:06.132Z,100849.25
2023-05-19T19:55:09.895Z,100852.19
2023-05-19T19:58:12.915Z,100854.06
2023-05-19T20:01:16.167Z,100853.50
2023-05-19T20:04:18.849Z,100858.44
2023-05-19T20:07:23.365Z,100864.78
2023-05-19T20:10:26.081Z,100861.13
2023-05-19T20:13:30.012Z,100857.97
2023-05-19T20:16:33.988Z,100862.16
2023-05-19T20:19:36.661Z,100861.47
2023-05-19T20:22:39.520Z,100865.25
2023-05-19T20:25:58.518Z,100869.00
2023-05-19T20:29:05.200Z,100863.59
2023-05-19T20:32:07.650Z,100861.47
2023-05-19T20:35:10.259Z,100864.31
2023-05-19T20:38:12.810Z,100861.84
2023-05-19T20:41:15.487Z,100859.38
2023-05-19T20:44:18.039Z,100851.97
2023-05-19T20:47:21.154Z,100848.66
2023-05-19T20:50:23.698Z,100848.56
2023-05-19T20:53:26.524Z,100855.38
2023-05-19T20:56:29.075Z,100847.75
2023-05-19T20:59:32.145Z,100852.78
2023-05-19T21:02:34.740Z,100851.84
2023-05-19T21:05:37.306Z,100851.38
2023-05-19T21:08:39.799Z,100855.13
2023-05-19T21:11:42.364Z,100845.97
2023-05-19T21:14:44.941Z,100850.31
2023-05-19T21:17:47.669Z,100862.66
2023-05-19T21:20:50.798Z,100847.75
2023-05-19T21:23:53.361Z,100848.69
2023-05-19T21:26:55.926Z,100855.13
2023-05-19T21:29:58.479Z,100849.13
2023-05-19T21:33:01.089Z,100852.78
2023-05-19T21:36:03.752Z,100848.06
2023-05-19T21:39:06.407Z,100846.50
2023-05-19T21:42:09.057Z,100849.53
2023-05-19T21:45:11.739Z,100854.09
2023-05-19T21:48:14.233Z,100856.56
2023-05-19T21:51:16.865Z,100854.88
2023-05-19T21:54:19.380Z,100856.13
2023-05-19T21:57:21.854Z,100861.38
2023-05-19T22:00:25.880Z,100864.91
2023-05-19T22:03:28.964Z,100861.66
2023-05-19T22:06:31.672Z,100867.06
2023-05-19T22:09:34.527Z,100863.88
2023-05-19T22:12:37.192Z,100859.81
2023-05-19T22:15:39.732Z,100849.72
2023-05-19T22:18:42.627Z,100850.09
2023-05-19T22:21:45.207Z,100834.81
2023-05-19T22:24:47.738Z,100824.41
2023-05-19T22:27:50.464Z,100827.78
2023-05-19T22:30:52.962Z,100823.72
2023-05-19T22:33:56.060Z,100814.47
2023-05-19T22:36:58.690Z,100823.22
2023-05-19T22:40:01.165Z,100830.13
2023-05-19T22:43:03.721Z,100823.69
2023-05-19T22:46:06.437Z,100815.97
2023-05-19T22:49:08.956Z,100821.94
2023-05-19T22:52:11.524Z,100807.44
2023-05-19T22:55:14.060Z,100810.72
2023-05-19T22:58:16.582Z,100799.19
2023-05-19T23:01:19.142Z,100803.91
2023-05-19T23:04:21.915Z,100795.09
2023-05-19T23:07:24.506Z,100801.59
2023-05-19T23:10:27.058Z,100797.03
2023-05-19T23:13:34.146Z,100792.53
2023-05-19T23:16:36.611Z,100793.00
2023-05-19T23:19:39.176Z,100794.63
2023-05-19T23:22:41.951Z,100793.59
2023-05-19T23:25:44.515Z,100788.13
2023-05-19T23:28:47.292Z,100795.75
2023-05-19T23:31:49.832Z,100797.94
2023-05-19T23:34:52.405Z,100796.53
2023-05-19T23:37:54.999Z,100802.59
2023-05-19T23:40:57.590Z,100796.84
2023-05-19T23:44:00.132Z,100801.06
2023-05-19T23:47:02.772Z,100800.69
2023-05-19T23:50:05.784Z,100800.06
2023-05-19T23:53:12.484Z,100796.69
2023-05-19T23:56:15.057Z,100797.16
2023-05-19T23:59:17.530Z,100783.06
